AirNav   Everest Fuels
 
 1172 users online  

86F Carnegie Municipal Airport
Carnegie, Oklahoma, USA

GOING TO CARNEGIE?


FAA INFORMATION EFFECTIVE 02 JANUARY 2020

Location

FAA Identifier: 86F
Lat/Long: 35-07-25.4000N 098-34-30.9000W
35-07.423333N 098-34.515000W
35.1237222,-98.5752500
(estimated)
Elevation: 1354 ft. / 413 m (estimated)
Variation: 07E (1985)
From city: 2 miles NE of CARNEGIE, OK
Time zone: UTC -6 (UTC -5 during Daylight Saving Time)
Zip code: 73015

Airport Operations

Airport use: Open to the public
Activation date: 12/1972
Control tower: no
ARTCC: FORT WORTH CENTER
FSS: MC ALESTER FLIGHT SERVICE STATION
NOTAMs facility: MLC (NOTAM-D service available)
Attendance: UNATNDD
Wind indicator: yes
Segmented circle: no
Lights: ACTVT MIRL RY 17/35 - CTAF.

Airport Communications

CTAF: 122.9

Nearby radio navigation aids

VOR radial/distance  VOR name  Freq  Var
HBRr047/28.5HOBART VORTAC111.8010E
BFVr097/31.7BURNS FLAT VORTAC110.0005E
LAWr339/38.5LAWTON VOR/DME109.4009E

 
NDB name  Hdg/Dist  Freq  Var  ID
TRAIL329/22.238809EOFZ --- ..-. --..
POST337/32.042508EPFL .--. ..-. .-..

Airport Services

Parking: tiedowns
Airframe service: NONE
Powerplant service: NONE
Bottled oxygen: NONE
Bulk oxygen: NONE

Runway Information

Runway 17/35

Dimensions: 3000 x 60 ft. / 914 x 18 m
Surface: asphalt/concrete, in fair condition
Weight bearing capacity: 
Single wheel: 11.0
Runway edge lights: medium intensity
Gradient: S.
RUNWAY 17  RUNWAY 35
Latitude: 35-07.670003N35-07.175358N
Longitude: 098-34.512895W098-34.516102W
Elevation: 1342.0 ft.1354.0 ft.
Traffic pattern: leftleft
Runway heading: 173 magnetic, 180 true353 magnetic, 000 true
Markings: basic, in fair conditionbasic, in fair condition
Obstructions: none9 ft. tree, 365 ft. from runway, 50 ft. left of centerline, 18:1 slope to clear
RWY 35 HAS 13 FT TREE 165 FT FROM RWY END AND 65 FT R.

Airport Ownership and Management from official FAA records

Ownership: Publicly-owned
Owner: CITY OF CARNEGIE
PO BOX 1075, 11 E MAIN
CARNEGIE, OK 73015
Phone 580-654-1004
Manager: ROBERT PETTIT
30150 COUNTY STREET 2475
CARNEGIE, OK 73015
Phone (580) 574-3140

Airport Operational Statistics

Aircraft based on the field: 10
Single engine airplanes: 9
Helicopters: 1
    
Aircraft operations: avg 42/month *
60% transient general aviation
40% local general aviation
* for 12-month period ending 12 May 2017

Additional Remarks

FOR CD CTC FORT WORTH ARTCC AT 817-858-7584.

Instrument Procedures

There are no published instrument procedures at 86F.

Some nearby airports with instrument procedures:

KHBR - Hobart Regional Airport (25 nm W)
2O8 - Hinton Municipal Airport (26 nm NE)
KOJA - Thomas P Stafford Airport (26 nm N)
KFSI - Henry Post Army Airfield (Fort Sill) (30 nm S)
KCHK - Chickasha Municipal Airport (30 nm E)
 
Loc | Ops | Rwys | IFR | FBO | Links
Com | Nav | Svcs | Stats | Notes
Area around 86F (Carnegie Municipal Airport)
 
Road maps at: MapQuest Bing Google
 
Aerial photo
WARNING: Photo may not be current or correct
Aerial photo of 86F (Carnegie Municipal Airport)
Photo taken 12-Nov-2005
looking North just before sunset

Do you have a better or more recent aerial photo of Carnegie Municipal Airport that you would like to share? If so, please send us your photo.

 
Sectional chart

 
Airport distance calculator
Flying to Carnegie Municipal Airport? Find the distance to fly.

From to 86F

Sunrise and sunset
Times for 28-Jan-2020
 Local
(UTC-6)
 Zulu
(UTC)
Morning civil twilight07:1013:10
Sunrise07:3713:37
Sunset17:5723:57
Evening civil twilight18:2400:24

Current date and time
Zulu (UTC)  28-Jan-2020 13:24:22
Local (UTC-6)  28-Jan-2020 07:24:22
 
METAR
KHBR 
25nm W 
281253Z AUTO 05015KT 5SM -RA BR OVC003 08/07 A2982 RMK AO2 SLP096 P0008 T00830072
KOJA 
26nm N 
281255Z AUTO 04011KT 1 1/2SM DZ OVC004 02/02 A2988 RMK AO2
KCHK 
30nm E 
281255Z AUTO 08010KT 7SM -RA OVC008 08/08 A2981 RMK AO2 T00830076
KCLK 
30nm NW 
281255Z AUTO 03015G21KT 2 1/2SM RA OVC004 02/02 A2989 RMK AO2 PNO TSNO
KFSI 
31nm S 
281256Z AUTO 10010KT 7SM -RA OVC004 10/10 A2979 RMK AO2 SLP085 P0001 T00980098
KCSM 
33nm NW 
281253Z AUTO 01015KT 2SM RA BR OVC003 03/02 A2987 RMK AO2 SLP115 P0009 T00280022
KRQO 
35nm NE 
281250Z AUTO 05015KT 2 1/2SM -RA BR OVC003 05/04 A2988 RMK AO2 P0002 TSNO T00470044
KLAW 
35nm S 
281301Z AUTO 10009KT 5SM BR OVC004 10/10 A2980 RMK AO2 T01000100 $
KRCE 
43nm NE 
281255Z AUTO 06012G18KT 1 1/2SM -RA 05/04 A2987 RMK AO2 P0002
KLTS 
44nm SW 
281256Z 04011KT 10SM -DZ OVC004 09/09 A2979 RMK AO2A SLP085 P0001 T00850085 $
TAF
KFSI 
31nm S 
272200Z 2722/2904 16012G18KT 9999 SKC QNH2980INS BECMG 2800/2801 14009KT 9999 FEW020 BKN040 QNH2983INS BECMG 2806/2807 11010G15KT 8000 -SHRA BKN010 OVC020 620505 QNH2980INS BECMG 2809/2810 10012G18KT 6000 -RA OVC005 620605 QNH2980INS BECMG 2823/2824 34012G18KT 9999 NSW OVC020 620802 QNH2986INS TX21/2722Z TN02/2820Z LAST NO AMDS AFT 2804 NEXT 2814
NOTAMs
Click for the latest NOTAMs
NOTAMs are issued by the DoD/FAA and will open in a separate window not controlled by AirNav.

 

 
 

Would you like to see your business listed on this page?

 If your business provides an interesting product or service to pilots, flight crews, aircraft, or users of the Carnegie Municipal Airport, you should consider listing it here.  To start the listing process, click on the button below
 
Add a business
 

Other Pages about Carnegie Municipal Airport

Update a link
 
Copyright © AirNav, LLC. All rights reserved. Privacy Policy  Contact